Time;durP1;ratioP1;P1;durP2;ratioP2;P2;SDS_P1;SDS_P2;PMS_P1;PMS_P2;Temp;Humidity;BMP_temperature;BMP_pressure;BME280_temperature;BME280_humidity;BME280_pressure;Samples;Min_cycle;Max_cycle;Signal;HPM_P1;HPM_P2
2022/09/09 00:02:04;;;;;;;8.75;5.75;;;;;;;9.57;68.41;100353.87;1718696;83;21075;-77
2022/09/09 00:04:35;;;;;;;6.97;5.53;;;;;;;9.54;68.61;100352.95;1748411;81;21520;-77
2022/09/09 00:07:33;;;;;;;13.72;6.05;;;;;;;9.48;68.78;100345.83;1717499;82;21068;-74
2022/09/09 00:10:29;;;;;;;6.80;5.58;;;;;;;9.47;68.88;100339.33;1736887;81;22160;-74
2022/09/09 00:13:23;;;;;;;13.85;5.45;;;;;;;9.41;69.26;100349.63;1739341;82;20973;-77
2022/09/09 00:15:58;;;;;;;10.32;6.55;;;;;;;9.36;69.50;100346.80;1726670;82;21521;-79
2022/09/09 00:18:50;;;;;;;7.47;5.78;;;;;;;9.37;69.46;100341.73;1738073;82;21060;-77
2022/09/09 00:21:17;;;;;;;7.33;5.20;;;;;;;9.36;69.52;100339.56;1739611;82;21120;-79
2022/09/09 00:23:54;;;;;;;8.83;5.15;;;;;;;9.38;69.51;100344.72;1718591;83;21522;-81
2022/09/09 00:26:43;;;;;;;10.82;5.87;;;;;;;9.34;69.59;100347.05;1720835;83;20926;-83
2022/09/09 00:29:40;;;;;;;7.78;5.08;;;;;;;9.35;69.57;100348.66;1737411;79;21192;-75
2022/09/09 00:32:16;;;;;;;10.13;6.53;;;;;;;9.30;69.74;100353.91;1745403;81;21513;-81
2022/09/09 00:34:58;;;;;;;8.50;5.20;;;;;;;9.23;69.87;100348.31;1763256;81;21050;-74
2022/09/09 00:37:25;;;;;;;7.28;5.08;;;;;;;9.18;70.02;100347.12;1734734;82;21148;-74
2022/09/09 00:39:56;;;;;;;5.25;4.10;;;;;;;9.12;70.53;100344.51;1763773;81;20987;-84
2022/09/09 00:42:40;;;;;;;8.25;4.37;;;;;;;9.07;70.60;100345.70;1764946;81;20999;-83
2022/09/09 00:45:55;;;;;;;6.55;5.03;;;;;;;9.03;70.79;100348.02;1777621;80;21086;-78
2022/09/09 00:48:25;;;;;;;7.62;5.12;;;;;;;8.94;71.28;100354.72;1744805;81;21089;-83
2022/09/09 00:50:58;;;;;;;10.65;5.40;;;;;;;8.88;71.42;100360.15;1741349;81;23054;-81
2022/09/09 00:53:33;;;;;;;7.47;4.92;;;;;;;8.89;71.48;100353.23;1743303;81;20948;-74
2022/09/09 00:56:14;;;;;;;11.68;5.78;;;;;;;8.89;71.57;100353.23;1738828;81;21001;-78
2022/09/09 00:59:01;;;;;;;6.05;4.62;;;;;;;8.90;71.65;100352.71;1752172;80;22422;-80
2022/09/09 01:01:28;;;;;;;9.98;6.40;;;;;;;8.91;71.79;100357.05;1773233;80;21002;-77
2022/09/09 01:03:55;;;;;;;5.28;4.78;;;;;;;8.88;71.84;100353.44;1773331;80;21280;-79
2022/09/09 01:06:38;;;;;;;7.95;5.55;;;;;;;8.86;71.86;100363.08;1728444;80;20968;-75
2022/09/09 01:09:26;;;;;;;5.87;4.95;;;;;;;8.85;71.90;100365.45;1772419;80;21042;-78
2022/09/09 01:12:14;;;;;;;7.05;5.10;;;;;;;8.84;71.96;100368.34;1742419;82;21002;-74
2022/09/09 01:14:48;;;;;;;7.65;4.75;;;;;;;8.82;72.00;100363.22;1742556;82;21038;-72
2022/09/09 01:17:25;;;;;;;7.42;5.10;;;;;;;8.80;72.26;100368.49;1729237;80;21998;-74
2022/09/09 01:20:16;;;;;;;7.65;5.10;;;;;;;8.77;72.31;100365.75;1748015;80;21094;-75
2022/09/09 01:23:12;;;;;;;7.55;5.30;;;;;;;8.75;72.42;100365.14;1724427;81;21030;-75
2022/09/09 01:26:19;;;;;;;8.03;6.30;;;;;;;8.76;72.36;100368.12;1772223;80;21058;-76
2022/09/09 01:28:48;;;;;;;5.85;4.75;;;;;;;8.75;72.45;100369.98;1762838;80;21035;-75
2022/09/09 01:31:37;;;;;;;8.43;5.30;;;;;;;8.74;72.64;100383.60;1756961;80;21253;-75
2022/09/09 01:34:14;;;;;;;8.63;6.00;;;;;;;8.68;72.72;100378.59;1772706;80;20995;-77
2022/09/09 01:36:58;;;;;;;7.55;4.87;;;;;;;8.66;72.78;100378.02;1757160;80;21070;-70
2022/09/09 01:39:25;;;;;;;11.30;5.40;;;;;;;8.65;72.87;100380.39;1749752;80;21042;-71
2022/09/09 01:41:55;;;;;;;8.63;5.33;;;;;;;8.67;72.93;100374.81;1759825;80;20920;-70
2022/09/09 01:44:22;;;;;;;6.87;4.28;;;;;;;8.62;73.10;100374.66;1742886;82;21151;-70
2022/09/09 01:46:48;;;;;;;9.73;5.65;;;;;;;8.61;73.21;100373.83;1742738;82;21006;-72
2022/09/09 01:49:19;;;;;;;7.45;4.53;;;;;;;8.57;73.30;100375.31;1755729;80;20939;-70
2022/09/09 01:51:50;;;;;;;6.20;4.97;;;;;;;8.57;73.59;100360.57;1773707;80;20979;-71
2022/09/09 01:54:19;;;;;;;6.15;4.00;;;;;;;8.56;73.56;100358.09;1773837;80;21116;-69
2022/09/09 01:57:21;;;;;;;7.42;4.95;;;;;;;8.53;73.78;100359.89;1772031;80;21061;-72
2022/09/09 02:00:09;;;;;;;5.85;4.72;;;;;;;8.48;74.11;100362.41;1733970;81;21050;-72
2022/09/09 02:02:50;;;;;;;6.00;4.50;;;;;;;8.36;74.57;100362.80;1749375;80;20948;-70
2022/09/09 02:05:41;;;;;;;7.45;4.85;;;;;;;8.33;74.78;100357.38;1717403;82;21094;-71
2022/09/09 02:08:21;;;;;;;7.25;4.97;;;;;;;8.35;74.66;100361.98;1733505;82;21186;-70
2022/09/09 02:11:17;;;;;;;8.38;5.62;;;;;;;8.35;74.73;100363.32;1752670;80;21047;-70
2022/09/09 02:14:01;;;;;;;6.62;5.62;;;;;;;8.37;74.67;100360.44;1740658;81;21019;-71
2022/09/09 02:16:38;;;;;;;6.80;6.10;;;;;;;8.35;74.70;100360.64;1742248;81;21015;-69
2022/09/09 02:19:16;;;;;;;7.22;5.33;;;;;;;8.35;74.79;100364.66;1742071;81;20975;-70
2022/09/09 02:21:55;;;;;;;8.90;5.37;;;;;;;8.33;74.71;100365.41;1704047;82;21107;-69
2022/09/09 02:24:22;;;;;;;8.33;5.65;;;;;;;8.30;74.91;100364.49;1753750;81;21327;-69
2022/09/09 02:26:55;;;;;;;7.95;5.05;;;;;;;8.27;74.85;100362.23;1728744;82;21098;-73
2022/09/09 02:29:29;;;;;;;8.78;4.78;;;;;;;8.26;75.01;100357.39;1735833;81;21628;-72
2022/09/09 02:31:59;;;;;;;6.87;5.28;;;;;;;8.27;74.97;100361.72;1743406;81;21056;-72
2022/09/09 02:34:27;;;;;;;6.10;4.58;;;;;;;8.27;75.00;100363.05;1720238;81;21035;-73
2022/09/09 02:36:54;;;;;;;5.87;4.97;;;;;;;8.24;75.00;100370.20;1740963;81;21199;-72
2022/09/09 02:39:20;;;;;;;6.15;5.25;;;;;;;8.21;75.21;100371.95;1703694;83;21012;-73
2022/09/09 02:41:49;;;;;;;6.37;4.50;;;;;;;8.17;75.32;100374.77;1723510;82;21628;-73
2022/09/09 02:44:17;;;;;;;7.15;4.67;;;;;;;8.10;75.51;100373.19;1709427;83;21491;-73
2022/09/09 02:47:02;;;;;;;9.53;5.35;;;;;;;8.10;75.41;100369.17;1726257;82;21521;-72
2022/09/09 02:49:53;;;;;;;10.32;6.17;;;;;;;8.06;75.71;100374.12;1724099;82;22037;-72
2022/09/09 02:52:34;;;;;;;8.20;5.10;;;;;;;7.99;75.99;100371.20;1724351;82;20945;-72
2022/09/09 02:55:09;;;;;;;6.53;4.70;;;;;;;7.91;76.27;100366.94;1681098;83;21068;-73
2022/09/09 02:57:37;;;;;;;8.18;5.35;;;;;;;7.89;76.21;100368.99;1732490;82;21612;-73
2022/09/09 03:00:06;;;;;;;6.35;4.78;;;;;;;7.86;76.37;100364.08;1723892;81;21042;-74
2022/09/09 03:02:34;;;;;;;7.78;4.70;;;;;;;7.86;76.31;100362.20;1697091;82;21403;-72
2022/09/09 03:05:05;;;;;;;9.58;6.17;;;;;;;7.84;76.37;100370.98;1717896;82;20987;-70
2022/09/09 03:07:31;;;;;;;11.30;4.85;;;;;;;7.75;76.86;100369.59;1734272;82;20960;-71
2022/09/09 03:09:58;;;;;;;7.55;4.45;;;;;;;7.73;77.12;100374.84;1750289;80;21038;-72
2022/09/09 03:12:26;;;;;;;6.50;5.60;;;;;;;7.65;77.17;100375.92;1726385;82;21047;-72
2022/09/09 03:14:52;;;;;;;7.42;5.00;;;;;;;7.58;77.53;100367.09;1720766;83;21044;-71
2022/09/09 03:17:21;;;;;;;6.55;4.80;;;;;;;7.58;77.55;100367.64;1741667;81;21553;-72
2022/09/09 03:19:52;;;;;;;7.92;4.97;;;;;;;7.59;77.60;100375.44;1723363;81;21084;-71
2022/09/09 03:22:18;;;;;;;5.37;4.55;;;;;;;7.55;77.90;100372.89;1734546;82;21071;-71
2022/09/09 03:24:46;;;;;;;6.30;5.45;;;;;;;7.52;77.86;100377.34;1727821;81;21592;-71
2022/09/09 03:27:14;;;;;;;5.42;4.42;;;;;;;7.52;77.88;100380.53;1760419;81;21385;-70
2022/09/09 03:29:41;;;;;;;7.05;5.78;;;;;;;7.51;78.15;100393.09;1734168;81;22245;-71
2022/09/09 03:32:12;;;;;;;6.45;3.83;;;;;;;7.44;78.65;100391.77;1735852;81;21032;-71
2022/09/09 03:34:41;;;;;;;5.40;4.22;;;;;;;7.42;78.58;100394.37;1709417;81;21056;-70
2022/09/09 03:37:10;;;;;;;6.92;5.00;;;;;;;7.41;78.56;100391.38;1734894;82;21043;-69
2022/09/09 03:39:37;;;;;;;6.08;4.65;;;;;;;7.35;78.99;100390.36;1704649;82;21095;-69
2022/09/09 03:42:04;;;;;;;8.50;6.08;;;;;;;7.29;79.32;100391.20;1705300;82;21004;-69
2022/09/09 03:44:31;;;;;;;7.08;5.30;;;;;;;7.28;79.26;100387.42;1751532;81;21071;-71
2022/09/09 03:47:00;;;;;;;9.10;5.30;;;;;;;7.31;79.38;100380.30;1734371;82;21574;-71
2022/09/09 03:49:28;;;;;;;9.75;5.67;;;;;;;7.34;79.37;100386.55;1773513;80;21320;-72
2022/09/09 03:51:57;;;;;;;8.90;5.78;;;;;;;7.36;79.32;100389.85;1731644;82;21874;-71
2022/09/09 03:54:25;;;;;;;7.72;5.90;;;;;;;7.33;79.49;100396.97;1738597;82;21624;-72
2022/09/09 03:56:51;;;;;;;7.10;5.37;;;;;;;7.33;79.45;100392.95;1738309;82;21583;-72
2022/09/09 03:59:18;;;;;;;9.98;5.20;;;;;;;7.28;79.69;100394.94;1731814;82;21563;-72
2022/09/09 04:01:46;;;;;;;6.50;5.05;;;;;;;7.29;79.71;100395.76;1742024;81;21050;-71
2022/09/09 04:04:13;;;;;;;6.10;4.92;;;;;;;7.26;79.90;100402.34;1733949;82;21069;-73
2022/09/09 04:06:41;;;;;;;6.47;4.78;;;;;;;7.29;79.89;100405.91;1790734;79;21075;-67
2022/09/09 04:09:08;;;;;;;6.87;4.85;;;;;;;7.30;79.87;100403.55;1740820;81;21059;-70
2022/09/09 04:11:34;;;;;;;5.85;5.22;;;;;;;7.32;79.88;100404.69;1762313;80;21066;-70
2022/09/09 04:14:02;;;;;;;9.08;5.33;;;;;;;7.29;79.93;100405.91;1755143;80;21023;-70
2022/09/09 04:16:29;;;;;;;7.75;4.72;;;;;;;7.29;80.00;100405.12;1749000;80;21544;-71
2022/09/09 04:18:55;;;;;;;7.35;5.75;;;;;;;7.24;80.33;100411.62;1744090;81;20958;-71
2022/09/09 04:21:23;;;;;;;8.95;5.92;;;;;;;7.23;80.32;100407.30;1742856;80;21058;-72
2022/09/09 04:23:51;;;;;;;8.78;5.87;;;;;;;7.26;80.46;100403.67;1768212;80;21035;-69
2022/09/09 04:26:19;;;;;;;5.90;4.90;;;;;;;7.32;80.33;100409.53;1770354;80;21204;-71
2022/09/09 04:28:45;;;;;;;7.58;4.83;;;;;;;7.34;80.34;100399.42;1769061;80;21169;-71
2022/09/09 04:31:21;;;;;;;10.95;4.72;;;;;;;7.38;80.26;100399.33;1751587;80;21015;-71
2022/09/09 04:33:49;;;;;;;10.40;7.33;;;;;;;7.43;80.16;100394.67;1751626;80;21090;-74
2022/09/09 04:36:19;;;;;;;10.68;5.55;;;;;;;7.47;79.99;100399.08;1742108;81;21523;-72
2022/09/09 04:38:51;;;;;;;11.08;5.85;;;;;;;7.48;80.04;100408.25;1718529;82;21294;-74
2022/09/09 04:41:17;;;;;;;5.30;4.80;;;;;;;7.47;80.16;100412.46;1726326;81;22618;-71
2022/09/09 04:43:45;;;;;;;8.58;5.72;;;;;;;7.43;80.54;100405.38;1744631;81;21018;-69
2022/09/09 04:46:13;;;;;;;6.72;4.60;;;;;;;7.40;80.56;100416.48;1698657;80;22485;-69
2022/09/09 04:48:39;;;;;;;8.03;5.53;;;;;;;7.43;80.66;100428.13;1742247;82;21040;-69
2022/09/09 04:51:11;;;;;;;7.70;4.85;;;;;;;7.44;80.56;100423.87;1725882;80;21030;-71
2022/09/09 04:53:40;;;;;;;7.85;5.30;;;;;;;7.47;80.62;100425.33;1742829;81;21432;-71
2022/09/09 04:56:10;;;;;;;9.20;5.28;;;;;;;7.47;80.76;100426.67;1787336;79;21707;-71
2022/09/09 04:58:43;;;;;;;7.00;5.80;;;;;;;7.47;80.64;100429.34;1784706;80;21519;-71
2022/09/09 05:01:14;;;;;;;10.05;6.12;;;;;;;7.51;80.70;100427.88;1796868;79;21036;-70
2022/09/09 05:03:41;;;;;;;10.25;5.87;;;;;;;7.53;80.78;100431.16;1785707;79;21024;-71
2022/09/09 05:06:13;;;;;;;6.72;5.58;;;;;;;7.60;80.75;100440.50;1779785;80;21289;-69
2022/09/09 05:08:41;;;;;;;9.93;5.10;;;;;;;7.66;80.71;100436.98;1783083;79;20968;-70
2022/09/09 05:11:26;;;;;;;6.50;5.37;;;;;;;7.67;80.64;100433.28;1801119;79;21023;-69
2022/09/09 05:13:56;;;;;;;12.80;6.47;;;;;;;7.71;80.68;100435.33;1781005;79;20936;-71
2022/09/09 05:16:23;;;;;;;11.30;6.87;;;;;;;7.78;80.52;100445.98;1748129;80;21063;-70
2022/09/09 05:18:51;;;;;;;8.53;6.00;;;;;;;7.85;80.35;100438.24;1811886;79;21554;-73
2022/09/09 05:21:20;;;;;;;14.15;7.00;;;;;;;7.95;80.10;100440.45;1797371;79;20991;-71
2022/09/09 05:23:46;;;;;;;11.78;6.85;;;;;;;8.02;79.85;100443.08;1782513;79;20986;-71
2022/09/09 05:26:16;;;;;;;16.40;7.03;;;;;;;8.08;79.59;100441.72;1715879;82;21058;-73
2022/09/09 05:28:48;;;;;;;14.10;7.47;;;;;;;8.10;79.52;100435.64;1806206;79;21015;-75
2022/09/09 05:31:16;;;;;;;12.37;8.48;;;;;;;8.18;79.39;100430.02;1806265;79;21134;-71
2022/09/09 05:33:45;;;;;;;17.00;6.87;;;;;;;8.29;79.26;100427.16;1769404;81;21642;-73
2022/09/09 05:36:15;;;;;;;10.98;5.87;;;;;;;8.40;79.00;100422.97;1748191;80;21623;-69
2022/09/09 05:38:42;;;;;;;7.83;5.90;;;;;;;8.52;78.60;100426.61;1779759;80;21075;-69
2022/09/09 05:41:11;;;;;;;7.67;5.20;;;;;;;8.63;78.39;100420.00;1779263;79;21016;-70
2022/09/09 05:43:38;;;;;;;12.30;4.83;;;;;;;8.74;77.86;100415.27;1779800;80;21870;-70
2022/09/09 05:46:10;;;;;;;11.65;5.42;;;;;;;8.83;77.61;100421.17;1793789;79;21040;-72
2022/09/09 05:48:43;;;;;;;7.20;4.92;;;;;;;8.94;77.39;100430.36;1806066;79;21030;-70
2022/09/09 05:51:18;;;;;;;7.20;6.10;;;;;;;9.04;76.91;100432.84;1759875;80;21015;-73
2022/09/09 05:53:45;;;;;;;6.45;5.00;;;;;;;9.13;76.53;100425.32;1779696;80;21013;-71
2022/09/09 05:56:16;;;;;;;10.88;5.40;;;;;;;9.25;75.90;100424.08;1767844;79;21168;-70
2022/09/09 05:58:49;;;;;;;17.17;5.90;;;;;;;9.34;75.66;100429.44;1766791;81;21074;-71
2022/09/09 06:01:24;;;;;;;30.52;14.70;;;;;;;9.44;75.38;100429.75;1794411;79;21333;-69
2022/09/09 06:03:51;;;;;;;10.40;6.47;;;;;;;9.54;74.93;100439.44;1778221;79;21043;-70
2022/09/09 06:06:25;;;;;;;7.65;5.15;;;;;;;9.58;74.37;100436.08;1719364;82;21245;-71
2022/09/09 06:09:02;;;;;;;8.53;4.90;;;;;;;9.63;73.98;100435.41;1763964;80;21712;-71
2022/09/09 06:11:30;;;;;;;7.85;6.30;;;;;;;9.69;73.82;100439.06;1766617;80;21192;-71
2022/09/09 06:13:59;;;;;;;7.35;4.45;;;;;;;9.77;73.58;100440.91;1764340;80;22374;-70
2022/09/09 06:16:27;;;;;;;9.43;6.33;;;;;;;9.86;73.28;100438.20;1762955;80;21536;-69
2022/09/09 06:18:56;;;;;;;5.55;4.50;;;;;;;9.99;72.89;100439.36;1742288;82;21083;-71
2022/09/09 06:21:36;;;;;;;4.80;3.90;;;;;;;10.10;72.62;100441.80;1742862;80;21169;-70
2022/09/09 06:24:03;;;;;;;16.12;9.53;;;;;;;10.22;72.30;100451.27;1781285;79;21045;-68
2022/09/09 06:26:36;;;;;;;9.55;5.83;;;;;;;10.35;71.79;100467.23;1788228;79;20999;-70
2022/09/09 06:29:03;;;;;;;8.20;4.30;;;;;;;10.42;71.24;100458.00;1751971;80;21094;-69
2022/09/09 06:31:33;;;;;;;7.45;5.40;;;;;;;10.49;70.78;100449.33;1772909;80;21095;-71
2022/09/09 06:34:05;;;;;;;7.42;4.87;;;;;;;10.61;70.58;100443.13;1758111;80;21106;-74
2022/09/09 06:36:35;;;;;;;11.60;4.85;;;;;;;10.71;70.15;100439.34;1715600;82;21356;-70
2022/09/09 06:39:01;;;;;;;5.72;4.20;;;;;;;10.82;70.04;100440.72;1742440;82;21540;-70
2022/09/09 06:41:30;;;;;;;10.00;4.97;;;;;;;10.91;69.65;100438.48;1728023;82;21077;-70
2022/09/09 06:43:58;;;;;;;12.68;6.05;;;;;;;11.04;69.36;100444.98;1749870;80;21335;-69
2022/09/09 06:46:30;;;;;;;10.15;6.25;;;;;;;11.14;68.97;100447.08;1747429;80;22180;-70
2022/09/09 06:48:59;;;;;;;16.07;5.92;;;;;;;11.23;68.06;100447.02;1767294;81;21315;-70
2022/09/09 06:51:31;;;;;;;14.18;5.33;;;;;;;11.29;67.94;100450.13;1755159;80;21492;-70
2022/09/09 06:53:59;;;;;;;20.05;5.33;;;;;;;11.36;67.68;100457.04;1766627;80;21066;-70
2022/09/09 06:56:32;;;;;;;7.78;4.85;;;;;;;11.43;67.48;100451.51;1762535;80;21026;-70
2022/09/09 06:59:04;;;;;;;19.07;6.28;;;;;;;11.50;66.76;100450.87;1725657;80;21196;-72
2022/09/09 07:01:40;;;;;;;16.15;6.30;;;;;;;11.59;66.73;100445.92;1759618;80;21022;-69
2022/09/09 07:04:10;;;;;;;23.05;7.10;;;;;;;11.68;66.47;100450.70;1743122;80;21626;-71
2022/09/09 07:06:42;;;;;;;18.73;6.65;;;;;;;11.79;66.39;100450.42;1745251;80;21018;-70
2022/09/09 07:09:13;;;;;;;17.27;6.15;;;;;;;11.91;66.17;100457.92;1748170;80;21035;-69
2022/09/09 07:11:44;;;;;;;19.73;7.95;;;;;;;12.04;65.60;100456.28;1743433;80;21095;-69
2022/09/09 07:14:13;;;;;;;27.60;11.03;;;;;;;12.18;64.68;100461.67;1731064;81;21118;-72
2022/09/09 07:16:41;;;;;;;12.73;6.05;;;;;;;12.31;64.62;100462.45;1741849;81;21023;-73
2022/09/09 07:19:10;;;;;;;19.35;7.08;;;;;;;12.42;64.19;100463.73;1738112;80;20992;-72
2022/09/09 07:21:39;;;;;;;6.05;3.25;;;;;;;12.59;61.75;100465.11;1766732;80;21548;-70
2022/09/09 07:24:09;;;;;;;7.15;3.22;;;;;;;12.75;61.15;100460.80;1742321;82;21218;-73
2022/09/09 07:26:38;;;;;;;4.72;3.33;;;;;;;12.91;60.38;100466.70;1742295;82;21020;-71
2022/09/09 07:29:05;;;;;;;13.00;3.37;;;;;;;13.05;58.95;100460.72;1747117;80;21053;-73
2022/09/09 07:31:36;;;;;;;7.42;2.72;;;;;;;13.18;58.79;100458.80;1752529;80;21575;-73
2022/09/09 07:34:04;;;;;;;6.83;3.47;;;;;;;13.29;57.25;100459.20;1748480;80;21086;-77
2022/09/09 07:36:33;;;;;;;8.70;4.08;;;;;;;13.43;57.41;100461.30;1736193;82;21560;-74
2022/09/09 07:39:03;;;;;;;9.03;3.10;;;;;;;13.57;57.13;100447.45;1752693;80;21531;-76
2022/09/09 07:41:39;;;;;;;10.73;3.30;;;;;;;13.71;55.92;100451.41;1773135;80;21015;-75
2022/09/09 07:44:08;;;;;;;4.85;2.83;;;;;;;13.84;55.21;100455.89;1762568;80;21046;-78
2022/09/09 07:46:39;;;;;;;6.95;2.33;;;;;;;14.01;54.14;100454.98;1767515;81;21050;-74
2022/09/09 07:49:05;;;;;;;13.83;2.80;;;;;;;14.09;53.36;100449.96;1756087;80;22615;-76
2022/09/09 07:51:36;;;;;;;4.70;2.05;;;;;;;14.22;52.53;100454.96;1750635;80;21015;-73
2022/09/09 07:54:06;;;;;;;16.20;2.58;;;;;;;14.32;50.81;100462.37;1746427;80;21019;-73
2022/09/09 07:56:33;;;;;;;11.00;2.65;;;;;;;14.42;49.71;100461.69;1755619;80;21035;-71
2022/09/09 07:59:04;;;;;;;5.08;2.77;;;;;;;14.48;49.43;100460.13;1763361;80;21704;-69
2022/09/09 08:01:33;;;;;;;5.25;2.20;;;;;;;14.58;49.79;100454.00;1734455;81;22234;-68
2022/09/09 08:04:03;;;;;;;9.03;2.17;;;;;;;14.71;48.59;100461.14;1753458;81;20916;-71
2022/09/09 08:06:35;;;;;;;8.60;2.20;;;;;;;14.86;48.63;100462.34;1737552;81;20919;-70
2022/09/09 08:09:04;;;;;;;4.05;1.75;;;;;;;14.98;47.90;100461.61;1741538;81;21595;-71
2022/09/09 08:11:35;;;;;;;7.00;3.08;;;;;;;15.04;47.75;100465.46;1759237;81;21019;-72
2022/09/09 08:14:04;;;;;;;6.75;2.17;;;;;;;15.11;48.05;100457.09;1733167;82;21087;-70
2022/09/09 08:16:36;;;;;;;4.85;1.98;;;;;;;15.16;46.98;100448.46;1764779;81;21552;-71
2022/09/09 08:19:03;;;;;;;7.40;1.87;;;;;;;15.18;46.52;100459.87;1733467;82;20959;-71
2022/09/09 08:21:33;;;;;;;5.58;2.50;;;;;;;15.21;46.71;100455.27;1763837;81;21171;-71
2022/09/09 08:24:01;;;;;;;5.42;2.20;;;;;;;15.26;46.89;100453.13;1732561;82;21086;-71
2022/09/09 08:26:34;;;;;;;10.85;1.82;;;;;;;15.33;46.83;100444.77;1748476;80;21236;-73
2022/09/09 08:29:04;;;;;;;6.92;1.92;;;;;;;15.40;46.26;100441.27;1725672;81;20983;-72
2022/09/09 08:31:37;;;;;;;17.23;2.60;;;;;;;15.48;45.82;100444.86;1746553;81;21000;-70
2022/09/09 08:34:05;;;;;;;;;;;;;;;15.56;46.22;100437.60;1746941;80;21054;-74
2022/09/09 08:36:38;;;;;;;8.13;2.08;;;;;;;15.62;46.03;100432.48;1735858;81;20147;-72
2022/09/09 08:39:06;;;;;;;4.90;2.42;;;;;;;15.68;45.47;100429.51;1734696;81;21197;-71
2022/09/09 08:41:51;;;;;;;9.75;2.20;;;;;;;15.75;45.35;100418.96;1756121;81;20945;-70
2022/09/09 08:44:40;;;;;;;3.35;2.12;;;;;;;15.82;45.22;100424.97;1735692;81;21022;-71
2022/09/09 08:47:39;;;;;;;7.15;2.02;;;;;;;15.91;44.68;100423.37;1734521;82;21115;-71
2022/09/09 08:50:32;;;;;;;13.78;2.50;;;;;;;15.97;44.31;100427.16;1732216;82;21549;-72
2022/09/09 08:53:26;;;;;;;15.35;3.15;;;;;;;16.00;44.00;100428.55;1739411;81;21159;-69
2022/09/09 08:56:03;;;;;;;5.75;1.60;;;;;;;16.04;44.27;100425.03;1722545;83;21068;-72
2022/09/09 08:58:32;;;;;;;8.63;2.02;;;;;;;16.12;43.45;100421.78;1714462;81;21598;-72
2022/09/09 09:01:13;;;;;;;7.72;2.00;;;;;;;16.19;43.45;100425.61;1745652;80;20951;-71
2022/09/09 09:04:25;;;;;;;10.20;1.80;;;;;;;16.26;43.75;100419.92;1753743;80;21056;-74
2022/09/09 09:07:05;;;;;;;8.28;2.15;;;;;;;16.35;43.77;100417.77;1740267;82;21176;-76
2022/09/09 09:10:04;;;;;;;12.95;2.52;;;;;;;16.49;42.84;100422.12;1745413;81;21619;-73
2022/09/09 09:12:43;;;;;;;10.32;3.98;;;;;;;16.61;42.88;100412.36;1746497;81;21006;-72
2022/09/09 09:15:23;;;;;;;5.65;2.02;;;;;;;16.71;41.52;100411.00;1761194;80;21019;-74
2022/09/09 09:17:50;;;;;;;4.40;2.45;;;;;;;16.75;41.35;100403.93;1758972;80;21134;-73
2022/09/09 09:20:22;;;;;;;12.65;3.02;;;;;;;16.78;41.53;100408.30;1744537;80;21201;-76
2022/09/09 09:22:52;;;;;;;3.27;1.90;;;;;;;16.83;41.08;100410.19;1804634;79;20999;-75
2022/09/09 09:25:31;;;;;;;4.62;1.85;;;;;;;16.88;40.56;100402.83;1737259;81;21579;-78
2022/09/09 09:28:22;;;;;;;5.78;1.62;;;;;;;16.97;40.32;100396.31;1734426;81;21082;-73
2022/09/09 09:31:04;;;;;;;6.92;1.85;;;;;;;17.05;40.15;100390.30;1788176;79;21032;-74
2022/09/09 09:33:43;;;;;;;7.97;1.87;;;;;;;17.09;40.41;100391.38;1754035;81;21320;-76
2022/09/09 09:36:10;;;;;;;6.58;1.57;;;;;;;17.15;40.26;100400.34;1791346;79;20972;-80
2022/09/09 09:38:39;;;;;;;15.08;2.27;;;;;;;17.23;40.39;100398.41;1727469;83;21501;-72
2022/09/09 09:41:06;;;;;;;6.30;1.65;;;;;;;17.26;40.31;100398.69;1806492;79;21001;-78
2022/09/09 09:43:36;;;;;;;8.80;3.22;;;;;;;17.34;40.39;100393.22;1781566;79;21087;-72
2022/09/09 09:46:05;;;;;;;10.85;2.27;;;;;;;17.45;39.93;100392.10;1780657;79;21291;-76
2022/09/09 09:48:34;;;;;;;2.83;2.15;;;;;;;17.48;39.88;100402.41;1789923;78;20967;-80
2022/09/09 09:51:10;;;;;;;3.08;2.08;;;;;;;17.50;39.44;100402.96;1797609;78;21012;-78
2022/09/09 09:53:38;;;;;;;4.50;1.80;;;;;;;17.49;39.78;100413.56;1824147;78;21504;-70
2022/09/09 09:56:12;;;;;;;1.52;1.27;;;;;;;17.53;39.50;100405.66;1814055;78;21099;-71
2022/09/09 09:58:51;;;;;;;7.08;1.60;;;;;;;17.55;39.30;100403.48;1806611;78;21151;-72
2022/09/09 10:01:31;;;;;;;2.22;1.55;;;;;;;17.54;39.60;100412.19;1797703;78;20993;-72
2022/09/09 10:04:01;;;;;;;2.25;1.45;;;;;;;17.56;39.53;100414.06;1795232;78;21019;-79
2022/09/09 10:06:35;;;;;;;3.70;1.77;;;;;;;17.62;39.62;100412.17;1803573;79;21508;-82
2022/09/09 10:09:04;;;;;;;4.90;2.10;;;;;;;17.63;39.26;100405.65;1807557;78;21015;-82
2022/09/09 10:11:52;;;;;;;2.27;1.30;;;;;;;17.58;39.27;100403.73;1794823;78;21136;-77
2022/09/09 10:14:27;;;;;;;8.60;1.72;;;;;;;17.58;39.04;100404.28;1819249;78;20998;-74
2022/09/09 10:17:26;;;;;;;13.55;2.58;;;;;;;17.64;39.26;100405.38;1807397;78;21544;-76
2022/09/09 10:20:31;;;;;;;5.20;2.80;;;;;;;17.72;39.32;100413.50;1800135;79;21004;-76
2022/09/09 10:23:07;;;;;;;;;;;;;;;17.71;38.86;100422.74;1811605;78;21578;-85
2022/09/09 10:25:53;;;;;;;3.58;1.15;;;;;;;17.71;38.81;100411.86;1745576;80;21152;-80
2022/09/09 10:28:35;;;;;;;2.85;2.00;;;;;;;17.80;38.23;100416.98;1803151;78;20980;-94
2022/09/09 10:31:12;;;;;;;12.23;2.98;;;;;;;17.85;38.70;100411.52;1803633;78;20987;-80
2022/09/09 10:34:00;;;;;;;8.98;2.75;;;;;;;17.94;38.72;100413.91;1817816;78;21074;-76
2022/09/09 10:36:27;;;;;;;6.72;2.02;;;;;;;17.98;38.53;100408.20;1788084;78;21575;-78
2022/09/09 10:39:14;;;;;;;8.28;2.72;;;;;;;18.14;38.42;100407.00;1766155;80;21203;-83
2022/09/09 10:42:12;;;;;;;13.68;2.30;;;;;;;18.24;37.89;100403.39;1803478;78;21003;-90
2022/09/09 10:45:17;;;;;;;8.70;2.42;;;;;;;18.24;37.84;100397.40;1735894;81;21027;-81
2022/09/09 10:48:04;;;;;;;4.65;1.82;;;;;;;18.36;38.03;100412.58;1787110;79;21092;-76
2022/09/09 10:51:05;;;;;;;9.53;2.25;;;;;;;18.44;37.08;100393.72;1784773;79;20984;-73
2022/09/09 10:54:11;;;;;;;14.68;2.17;;;;;;;18.49;37.17;100410.56;1779345;79;22363;-73
2022/09/09 10:56:48;;;;;;;4.25;1.62;;;;;;;18.46;37.27;100407.88;1779640;80;20952;-78
2022/09/09 10:59:23;;;;;;;3.50;1.17;;;;;;;18.56;36.79;100407.80;1769905;79;21090;-77
2022/09/09 11:02:06;;;;;;;5.28;1.82;;;;;;;18.57;36.65;100405.89;1761002;80;21030;-79
2022/09/09 11:04:40;;;;;;;4.08;2.20;;;;;;;18.56;36.62;100401.56;1789235;79;21584;-75
2022/09/09 11:07:10;;;;;;;4.78;1.65;;;;;;;18.53;36.65;100402.09;1787649;79;21289;-76
2022/09/09 11:09:42;;;;;;;15.55;10.35;;;;;;;18.66;36.58;100402.27;1798952;79;21532;-79
2022/09/09 11:12:13;;;;;;;7.42;2.27;;;;;;;18.80;36.20;100405.14;1790253;78;20944;-79
2022/09/09 11:14:50;;;;;;;15.95;2.42;;;;;;;18.81;35.90;100412.22;1776653;80;21106;-77
2022/09/09 11:17:21;;;;;;;11.38;1.87;;;;;;;18.76;36.28;100406.00;1790178;79;21612;-78
2022/09/09 11:19:47;;;;;;;4.65;1.60;;;;;;;18.78;36.00;100411.99;1790846;79;22390;-88
2022/09/09 11:22:32;;;;;;;7.53;1.95;;;;;;;18.84;35.77;100402.68;1791698;79;21115;-85
2022/09/09 11:25:23;;;;;;;11.93;2.10;;;;;;;18.92;35.70;100389.23;1711870;83;21087;-81
2022/09/09 11:28:32;;;;;;;10.18;2.42;;;;;;;19.02;35.96;100400.58;1778976;79;21119;-84
2022/09/09 11:31:19;;;;;;;8.65;2.25;;;;;;;19.06;35.77;100396.17;1793986;79;21659;-76
2022/09/09 11:34:26;;;;;;;5.50;2.40;;;;;;;19.10;35.47;100392.58;1781418;79;21067;-84
2022/09/09 11:37:17;;;;;;;8.63;2.70;;;;;;;19.17;35.06;100390.88;1780767;80;20948;-78
2022/09/09 11:40:04;;;;;;;6.45;2.70;;;;;;;19.03;35.39;100389.95;1797109;79;21051;-90
2022/09/09 11:42:34;;;;;;;7.05;2.58;;;;;;;18.97;35.51;100390.55;1768723;79;21036;-89
2022/09/09 11:45:14;;;;;;;7.50;2.12;;;;;;;18.99;35.79;100381.51;1762519;80;20978;-77
2022/09/09 11:47:43;;;;;;;3.85;1.95;;;;;;;19.06;35.46;100387.45;1788055;79;21233;-85
2022/09/09 11:50:18;;;;;;;9.88;2.10;;;;;;;19.07;35.26;100393.72;1764847;79;21599;-87
2022/09/09 11:52:47;;;;;;;6.95;2.83;;;;;;;19.07;35.53;100387.72;1757897;80;21435;-85
2022/09/09 11:55:34;;;;;;;6.17;1.82;;;;;;;19.10;35.76;100391.77;1801259;79;21454;-86
2022/09/09 11:58:18;;;;;;;9.85;2.17;;;;;;;19.06;35.97;100384.72;1805356;79;21039;-81
2022/09/09 12:00:48;;;;;;;6.03;2.08;;;;;;;19.07;35.32;100392.36;1796507;79;21123;-79
2022/09/09 12:03:50;;;;;;;3.95;1.70;;;;;;;19.08;33.94;100389.89;1781051;79;21056;-82